createdAt,value
2022-08-22T00:03:56.656Z,41.80
2022-08-22T00:09:10.798Z,37.83
2022-08-22T00:14:35.658Z,38.42
2022-08-22T00:19:53.147Z,40.78
2022-08-22T00:25:22.997Z,37.65
2022-08-22T00:30:30.588Z,37.33
2022-08-22T00:35:48.544Z,55.20
2022-08-22T00:41:21.574Z,49.57
2022-08-22T00:46:23.758Z,33.80
2022-08-22T00:51:26.035Z,43.55
2022-08-22T00:56:58.532Z,44.67
2022-08-22T01:02:32.373Z,40.92
2022-08-22T01:07:43.548Z,31.67
2022-08-22T01:13:13.704Z,32.08
2022-08-22T01:18:31.468Z,38.33
2022-08-22T01:24:11.104Z,40.63
2022-08-22T01:29:18.907Z,40.88
2022-08-22T01:35:01.186Z,44.25
2022-08-22T01:40:54.783Z,31.55
2022-08-22T01:46:25.143Z,36.42
2022-08-22T01:51:54.306Z,31.40
2022-08-22T01:57:02.568Z,31.17
2022-08-22T02:02:32.607Z,36.53
2022-08-22T02:07:50.203Z,32.00
2022-08-22T02:13:20.049Z,34.28
2022-08-22T02:18:31.357Z,31.30
2022-08-22T02:23:44.147Z,37.78
2022-08-22T02:29:08.106Z,33.05
2022-08-22T02:34:31.557Z,41.30
2022-08-22T02:39:41.961Z,28.75
2022-08-22T02:44:55.886Z,29.80
2022-08-22T02:50:33.407Z,33.50
2022-08-22T02:55:39.210Z,41.80
2022-08-22T03:00:58.863Z,40.55
2022-08-22T03:06:09.562Z,41.13
2022-08-22T03:11:11.886Z,43.80
2022-08-22T03:16:22.935Z,41.63
2022-08-22T03:21:32.902Z,30.27
2022-08-22T03:26:52.742Z,38.00
2022-08-22T03:32:17.323Z,35.53
2022-08-22T03:37:26.422Z,40.50
2022-08-22T03:43:01.247Z,38.42
2022-08-22T03:48:48.069Z,45.35
2022-08-22T03:54:08.802Z,40.33
2022-08-22T03:59:29.402Z,48.28
2022-08-22T04:04:38.904Z,40.53
2022-08-22T04:10:22.885Z,36.67
2022-08-22T04:16:02.760Z,40.97
2022-08-22T04:21:20.292Z,36.92
2022-08-22T04:26:53.025Z,40.10
2022-08-22T04:32:07.045Z,89.78
2022-08-22T04:37:22.864Z,41.97
2022-08-22T04:42:40.663Z,60.13
2022-08-22T04:48:00.271Z,49.47
2022-08-22T04:53:45.113Z,52.05
2022-08-22T04:59:12.050Z,37.70
2022-08-22T05:04:27.820Z,46.55
2022-08-22T05:09:36.722Z,57.90
2022-08-22T05:14:47.404Z,51.42
2022-08-22T05:19:55.108Z,49.90
2022-08-22T05:25:09.825Z,71.80
2022-08-22T05:30:22.021Z,54.78
2022-08-22T05:35:41.051Z,49.47
2022-08-22T05:40:45.000Z,43.78
2022-08-22T05:45:48.046Z,49.22
2022-08-22T05:50:56.897Z,46.95
2022-08-22T05:56:23.535Z,48.97
2022-08-22T06:06:55.355Z,47.03
2022-08-22T06:12:04.954Z,49.28
2022-08-22T06:17:12.070Z,41.95
2022-08-22T06:22:29.915Z,44.05
2022-08-22T06:27:32.943Z,44.10
2022-08-22T06:32:58.892Z,45.90
2022-08-22T06:38:03.673Z,39.20
2022-08-22T06:43:06.335Z,43.60
2022-08-22T06:48:08.481Z,34.90
2022-08-22T06:53:26.028Z,34.70
2022-08-22T06:58:34.382Z,32.20
2022-08-22T07:03:41.147Z,48.80
2022-08-22T07:08:44.407Z,22.98
2022-08-22T07:13:55.440Z,21.55
2022-08-22T07:18:58.914Z,16.17
2022-08-22T07:24:01.401Z,15.10
2022-08-22T07:29:23.091Z,15.20
2022-08-22T07:35:03.172Z,17.45
2022-08-22T07:40:19.989Z,17.10
2022-08-22T07:45:49.767Z,15.27
2022-08-22T07:50:57.588Z,21.13
2022-08-22T07:56:02.242Z,14.05
2022-08-22T08:01:04.284Z,17.42
2022-08-22T08:06:08.286Z,17.15
2022-08-22T08:11:13.559Z,11.13
2022-08-22T08:16:29.015Z,10.93
2022-08-22T08:21:36.144Z,13.73
2022-08-22T08:27:04.694Z,17.45
2022-08-22T08:32:09.963Z,23.42
2022-08-22T08:37:33.586Z,10.02
2022-08-22T08:43:05.451Z,8.85
2022-08-22T08:48:18.253Z,12.02
2022-08-22T08:53:43.260Z,11.02
2022-08-22T08:59:23.725Z,11.52
2022-08-22T09:04:57.600Z,12.98
2022-08-22T09:10:33.122Z,11.63
2022-08-22T09:15:54.984Z,13.95
2022-08-22T09:21:28.343Z,12.18
2022-08-22T09:26:57.131Z,14.00
2022-08-22T09:32:06.768Z,9.23
2022-08-22T09:37:29.957Z,9.57
2022-08-22T09:42:49.577Z,11.43
2022-08-22T09:48:07.213Z,9.43
2022-08-22T09:53:41.273Z,6.38
2022-08-22T09:58:46.388Z,10.82
2022-08-22T10:04:14.214Z,11.52
2022-08-22T10:10:03.692Z,10.93
2022-08-22T10:15:28.508Z,10.80
2022-08-22T10:20:38.004Z,8.30
2022-08-22T10:25:49.943Z,10.77
2022-08-22T10:31:22.583Z,12.80
2022-08-22T10:36:40.487Z,10.93
2022-08-22T10:41:54.480Z,7.65
2022-08-22T10:47:18.128Z,13.18
2022-08-22T10:52:27.320Z,11.43
2022-08-22T10:57:55.038Z,12.40
2022-08-22T11:03:21.870Z,16.40
2022-08-22T11:08:40.340Z,15.07
2022-08-22T11:13:45.301Z,11.30
2022-08-22T11:19:02.937Z,11.90
2022-08-22T11:24:35.357Z,13.50
2022-08-22T11:30:02.201Z,14.25
2022-08-22T11:35:22.936Z,12.70
2022-08-22T11:40:40.576Z,17.20
2022-08-22T11:45:47.733Z,13.85
2022-08-22T11:50:59.366Z,13.10
2022-08-22T11:56:31.907Z,11.18
2022-08-22T12:02:02.061Z,13.30
2022-08-22T12:07:20.804Z,11.85
2022-08-22T12:12:46.314Z,15.18
2022-08-22T12:18:07.126Z,11.75
2022-08-22T12:23:48.865Z,9.95
2022-08-22T12:29:16.707Z,12.45
2022-08-22T12:34:38.241Z,10.15
2022-08-22T12:40:10.058Z,10.68
2022-08-22T12:45:26.647Z,10.38
2022-08-22T12:50:50.271Z,11.82
2022-08-22T12:56:04.040Z,6.13
2022-08-22T13:01:08.625Z,8.57
2022-08-22T13:06:35.321Z,8.68
2022-08-22T13:11:40.596Z,12.63
2022-08-22T13:16:51.277Z,9.43
2022-08-22T13:22:06.999Z,12.40
2022-08-22T13:27:20.311Z,8.15
2022-08-22T13:32:28.502Z,12.32
2022-08-22T13:37:41.210Z,12.02
2022-08-22T13:42:48.844Z,10.80
2022-08-22T13:47:56.342Z,9.75
2022-08-22T13:53:21.456Z,14.10
2022-08-22T13:58:23.276Z,10.43
2022-08-22T14:03:38.790Z,12.57
2022-08-22T14:08:45.796Z,5.70
2022-08-22T14:13:56.660Z,8.32
2022-08-22T14:19:08.272Z,9.30
2022-08-22T14:24:27.306Z,21.58
2022-08-22T14:29:44.060Z,12.95
2022-08-22T14:34:55.661Z,6.10
2022-08-22T14:40:19.433Z,9.45
2022-08-22T14:45:34.487Z,12.85
2022-08-22T14:51:05.772Z,8.30
2022-08-22T14:56:24.749Z,9.68
2022-08-22T15:01:29.690Z,10.27
2022-08-22T15:06:50.926Z,32.70
2022-08-22T15:16:59.045Z,5.82
2022-08-22T15:22:16.848Z,11.15
2022-08-22T15:27:20.472Z,5.40
2022-08-22T15:32:42.025Z,11.45
2022-08-22T15:38:01.410Z,13.75
2022-08-22T15:43:28.881Z,6.78
2022-08-22T15:48:41.023Z,10.52
2022-08-22T15:54:16.283Z,9.02
2022-08-22T15:59:47.680Z,6.07
2022-08-22T16:05:35.520Z,6.60
2022-08-22T16:10:43.653Z,10.20
2022-08-22T16:15:56.318Z,7.15
2022-08-22T16:21:00.670Z,6.50
2022-08-22T16:26:02.416Z,9.38
2022-08-22T16:31:23.092Z,7.97
2022-08-22T16:36:43.767Z,10.27
2022-08-22T16:41:46.404Z,6.20
2022-08-22T16:46:50.718Z,10.27
2022-08-22T16:52:20.496Z,9.85
2022-08-22T16:57:24.103Z,11.68
2022-08-22T17:02:48.511Z,7.53
2022-08-22T17:08:08.512Z,11.63
2022-08-22T17:13:35.313Z,11.35
2022-08-22T17:18:40.320Z,6.35
2022-08-22T17:24:00.302Z,11.23
2022-08-22T17:29:17.407Z,13.27
2022-08-22T17:35:00.800Z,7.55
2022-08-22T17:40:17.813Z,12.93
2022-08-22T17:45:48.974Z,7.75
2022-08-22T17:50:58.192Z,11.95
2022-08-22T17:56:17.976Z,14.90
2022-08-22T18:01:45.769Z,12.90
2022-08-22T18:06:56.439Z,15.27
2022-08-22T18:12:01.413Z,13.00
2022-08-22T18:17:16.907Z,15.25
2022-08-22T18:22:39.952Z,21.98
2022-08-22T18:27:54.053Z,10.70
2022-08-22T18:33:07.151Z,14.90
2022-08-22T18:38:26.588Z,16.40
2022-08-22T18:43:39.742Z,16.23
2022-08-22T18:49:11.627Z,15.65
2022-08-22T18:54:05.031Z,18.65
2022-08-22T18:59:17.765Z,15.55
2022-08-22T19:04:40.355Z,19.27
2022-08-22T19:09:51.285Z,14.73
2022-08-22T19:15:21.375Z,15.10
2022-08-22T19:20:52.599Z,11.88
2022-08-22T19:26:43.969Z,20.48
2022-08-22T19:31:48.057Z,14.27
2022-08-22T19:37:32.532Z,15.30
2022-08-22T19:42:36.768Z,13.23
2022-08-22T19:47:41.968Z,17.80
2022-08-22T19:52:46.821Z,14.75
2022-08-22T19:58:35.098Z,15.73
2022-08-22T20:03:54.635Z,13.45
2022-08-22T20:09:23.024Z,16.05
2022-08-22T20:14:30.188Z,16.65
2022-08-22T20:25:42.822Z,15.82
2022-08-22T20:30:49.522Z,18.40
2022-08-22T20:35:55.087Z,20.77
2022-08-22T20:41:11.749Z,16.95
2022-08-22T20:46:55.168Z,18.87
2022-08-22T20:52:08.014Z,24.70
2022-08-22T20:57:20.047Z,17.15
2022-08-22T21:02:35.695Z,20.80
2022-08-22T21:07:41.618Z,21.05
2022-08-22T21:12:43.457Z,22.85
2022-08-22T21:17:45.220Z,29.10
2022-08-22T21:22:47.409Z,33.53
2022-08-22T21:27:49.299Z,32.33
2022-08-22T21:32:55.776Z,31.90
2022-08-22T21:38:00.276Z,32.33
2022-08-22T21:43:08.557Z,44.67
2022-08-22T21:48:45.662Z,38.65
2022-08-22T21:53:47.688Z,30.13
2022-08-22T21:59:25.055Z,27.65
2022-08-22T22:04:27.138Z,29.90
2022-08-22T22:09:30.114Z,25.52
2022-08-22T22:14:31.980Z,29.48
2022-08-22T22:19:35.049Z,36.92
2022-08-22T22:24:37.000Z,30.30
2022-08-22T22:29:39.291Z,26.58
2022-08-22T22:34:41.175Z,27.05
2022-08-22T22:39:43.069Z,40.08
2022-08-22T22:44:47.408Z,46.42
2022-08-22T22:49:49.464Z,39.28
2022-08-22T22:54:51.859Z,45.30
2022-08-22T22:59:53.683Z,55.65
2022-08-22T23:04:56.894Z,53.10
2022-08-22T23:09:58.744Z,48.72
2022-08-22T23:15:06.857Z,34.85
2022-08-22T23:20:09.055Z,38.08
2022-08-22T23:25:11.111Z,29.08
2022-08-22T23:30:13.019Z,35.13
2022-08-22T23:35:14.813Z,28.50
2022-08-22T23:40:16.830Z,47.72
2022-08-22T23:45:18.736Z,39.05
2022-08-22T23:50:20.688Z,34.47
2022-08-22T23:55:22.426Z,50.50
